Time;durP1;ratioP1;P1;durP2;ratioP2;P2;SDS_P1;SDS_P2;PMS_P1;PMS_P2;Temp;Humidity;BMP_temperature;BMP_pressure;BME280_temperature;BME280_humidity;BME280_pressure;Samples;Min_cycle;Max_cycle;Signal;HPM_P1;HPM_P2
2023/10/22 00:04:38;;;;;;;1.23;0.75;;;15.80;99.90;;;;;;10000093;28;20029;-70
2023/10/22 00:09:29;;;;;;;0.77;0.70;;;15.70;99.90;;;;;;9985770;28;20117;-70
2023/10/22 00:14:20;;;;;;;4.43;0.75;;;15.60;99.90;;;;;;9990679;28;20125;-70
2023/10/22 00:19:10;;;;;;;1.38;0.88;;;15.50;99.90;;;;;;9980312;28;20049;-69
2023/10/22 00:24:01;;;;;;;3.65;1.10;;;15.40;99.90;;;;;;9979848;28;20025;-70
2023/10/22 00:28:52;;;;;;;3.65;0.90;;;15.40;99.90;;;;;;10003815;28;20562;-70
2023/10/22 00:33:43;;;;;;;1.73;0.75;;;15.40;99.90;;;;;;9962700;28;20084;-70
2023/10/22 00:38:34;;;;;;;4.13;1.38;;;15.30;99.90;;;;;;9981809;28;20038;-72
2023/10/22 00:43:25;;;;;;;3.05;1.00;;;15.40;99.90;;;;;;9991886;28;20081;-72
2023/10/22 00:48:17;;;;;;;2.42;1.00;;;15.40;99.90;;;;;;9977015;28;20029;-69
2023/10/22 00:53:14;;;;;;;3.97;1.10;;;15.30;99.90;;;;;;10008688;28;20057;-70
2023/10/22 00:58:05;;;;;;;5.25;1.17;;;15.30;99.90;;;;;;9995947;28;20406;-70
2023/10/22 01:02:56;;;;;;;3.72;1.27;;;15.30;99.90;;;;;;9999764;28;20503;-71
2023/10/22 01:07:47;;;;;;;3.80;0.93;;;15.20;99.90;;;;;;9980268;28;20437;-70
2023/10/22 01:12:38;;;;;;;3.60;0.75;;;15.20;99.90;;;;;;9994473;28;20038;-70
2023/10/22 01:17:28;;;;;;;2.05;1.10;;;15.10;99.90;;;;;;9989324;28;20069;-69
2023/10/22 01:22:19;;;;;;;2.55;0.90;;;15.10;99.90;;;;;;9986669;28;20026;-70
2023/10/22 01:27:10;;;;;;;2.28;1.00;;;15.10;99.90;;;;;;10011214;28;20034;-69
2023/10/22 01:32:00;;;;;;;4.20;1.30;;;15.00;99.90;;;;;;10010305;28;20407;-70
2023/10/22 01:36:51;;;;;;;1.98;1.30;;;15.00;99.90;;;;;;9998890;28;20042;-70
2023/10/22 01:41:42;;;;;;;2.60;0.65;;;14.90;99.90;;;;;;9996758;28;20291;-71
2023/10/22 01:46:33;;;;;;;2.45;0.88;;;14.80;99.90;;;;;;9989816;28;20031;-70
2023/10/22 01:51:23;;;;;;;2.17;0.93;;;14.90;99.90;;;;;;10002930;28;20061;-70
2023/10/22 01:56:14;;;;;;;2.97;1.20;;;14.90;99.90;;;;;;9996808;28;20586;-70
2023/10/22 02:01:06;;;;;;;2.25;0.95;;;15.00;99.90;;;;;;9998418;28;20476;-69
2023/10/22 02:05:57;;;;;;;2.28;1.02;;;14.90;99.90;;;;;;9979420;28;20048;-72
2023/10/22 02:10:48;;;;;;;2.72;0.73;;;14.90;99.90;;;;;;9969916;28;20026;-72
2023/10/22 02:15:38;;;;;;;2.53;1.02;;;14.70;99.90;;;;;;9988406;28;20116;-70
2023/10/22 02:20:29;;;;;;;1.20;0.65;;;14.80;99.90;;;;;;9982136;28;20023;-71
2023/10/22 02:25:20;;;;;;;1.13;1.00;;;14.70;99.90;;;;;;9962471;28;20034;-71
2023/10/22 02:30:11;;;;;;;2.30;0.63;;;14.80;99.90;;;;;;9998395;28;20030;-71
2023/10/22 02:35:01;;;;;;;2.83;0.90;;;14.80;99.90;;;;;;9992654;28;20042;-70
2023/10/22 02:39:52;;;;;;;1.45;0.70;;;14.70;99.90;;;;;;9993166;28;20037;-72
2023/10/22 02:44:43;;;;;;;2.58;0.90;;;14.60;99.90;;;;;;9990446;28;20198;-71
2023/10/22 02:49:33;;;;;;;1.90;1.02;;;14.60;99.90;;;;;;9950388;28;1126925;-71
2023/10/22 02:54:24;;;;;;;1.55;0.82;;;14.70;99.90;;;;;;9993992;28;20100;-71
2023/10/22 02:59:16;;;;;;;2.20;0.80;;;14.60;99.90;;;;;;10001902;28;20042;-71
2023/10/22 03:04:06;;;;;;;4.93;0.88;;;14.50;99.90;;;;;;9977665;28;20138;-70
2023/10/22 03:08:57;;;;;;;1.73;0.82;;;14.40;99.90;;;;;;9990220;28;20504;-70
2023/10/22 03:13:50;;;;;;;4.63;1.25;;;14.40;99.90;;;;;;9972850;28;20030;-70
2023/10/22 03:18:44;;;;;;;1.48;0.80;;;14.40;99.90;;;;;;9975917;28;20038;-70
2023/10/22 03:23:35;;;;;;;0.57;0.57;;;14.40;99.90;;;;;;9970861;28;20022;-71
2023/10/22 03:28:25;;;;;;;1.77;0.77;;;14.40;99.90;;;;;;9996530;28;20038;-71
2023/10/22 03:33:16;;;;;;;2.80;0.80;;;14.20;99.90;;;;;;9988220;28;20025;-72
2023/10/22 03:38:10;;;;;;;1.85;0.75;;;14.20;99.90;;;;;;9994787;28;20297;-71
2023/10/22 03:43:00;;;;;;;3.30;0.93;;;14.20;99.90;;;;;;9994488;28;20030;-71
2023/10/22 03:47:51;;;;;;;1.35;0.90;;;14.20;99.90;;;;;;9980801;28;20036;-71
2023/10/22 03:52:42;;;;;;;2.15;1.00;;;14.10;99.90;;;;;;9991676;28;20053;-71
2023/10/22 03:57:33;;;;;;;1.27;0.68;;;14.00;99.90;;;;;;10002023;28;20081;-71
2023/10/22 04:02:23;;;;;;;1.98;0.70;;;14.00;99.90;;;;;;9996548;28;20528;-71
2023/10/22 04:07:14;;;;;;;1.33;0.75;;;14.00;99.90;;;;;;9991654;28;20030;-70
2023/10/22 04:12:05;;;;;;;1.83;0.82;;;14.00;99.90;;;;;;9990465;28;20023;-69
2023/10/22 04:16:55;;;;;;;2.13;0.68;;;14.10;99.90;;;;;;9980930;28;20046;-68
2023/10/22 04:21:46;;;;;;;4.15;0.75;;;13.90;99.90;;;;;;9987966;28;20031;-69
2023/10/22 04:26:37;;;;;;;3.30;0.57;;;13.90;99.90;;;;;;9975547;28;20488;-71
2023/10/22 04:31:27;;;;;;;1.25;0.90;;;13.90;99.90;;;;;;9982575;28;20030;-70
2023/10/22 04:36:21;;;;;;;2.22;0.70;;;13.90;99.90;;;;;;10000653;28;20065;-70
2023/10/22 04:41:12;;;;;;;1.42;0.68;;;13.90;99.90;;;;;;9995601;28;20030;-70
2023/10/22 04:46:03;;;;;;;2.13;1.10;;;13.80;99.90;;;;;;9988151;28;20361;-71
2023/10/22 04:50:55;;;;;;;1.48;0.70;;;13.80;99.90;;;;;;9987788;28;20050;-70
2023/10/22 04:55:55;;;;;;;1.08;0.55;;;13.90;99.90;;;;;;9994843;28;20046;-69
2023/10/22 05:00:50;;;;;;;1.45;0.50;;;13.80;99.90;;;;;;9993355;28;20031;-70
2023/10/22 05:05:41;;;;;;;1.40;0.70;;;13.70;99.90;;;;;;9974566;28;20034;-71
2023/10/22 05:10:38;;;;;;;1.40;0.60;;;13.80;99.90;;;;;;9984619;28;20452;-70
2023/10/22 05:15:29;;;;;;;1.13;0.40;;;13.80;99.90;;;;;;9995561;28;20034;-70
2023/10/22 05:20:19;;;;;;;2.45;0.85;;;13.80;99.90;;;;;;9989807;28;20046;-70
2023/10/22 05:25:10;;;;;;;1.42;0.68;;;13.70;99.90;;;;;;9986110;28;20049;-71
2023/10/22 05:30:01;;;;;;;1.02;0.70;;;13.70;99.90;;;;;;9996375;28;20031;-69
2023/10/22 05:34:51;;;;;;;0.82;0.70;;;13.70;99.90;;;;;;9996508;28;20409;-70
2023/10/22 05:39:42;;;;;;;2.28;0.70;;;13.70;99.90;;;;;;9992656;28;20050;-71
2023/10/22 05:44:36;;;;;;;6.90;1.10;;;13.70;99.90;;;;;;9992307;28;20034;-70
2023/10/22 05:49:27;;;;;;;2.53;0.85;;;13.70;99.90;;;;;;9998237;28;20042;-71
2023/10/22 05:54:17;;;;;;;1.33;0.80;;;13.70;99.90;;;;;;10005338;28;20038;-71
2023/10/22 05:59:09;;;;;;;3.00;0.60;;;13.70;99.90;;;;;;10004428;28;20053;-70
2023/10/22 06:03:59;;;;;;;1.23;0.57;;;13.80;99.90;;;;;;10000504;28;20069;-70
2023/10/22 06:08:50;;;;;;;1.75;0.65;;;13.70;99.90;;;;;;9976402;28;20034;-70
2023/10/22 06:13:41;;;;;;;3.35;0.68;;;13.50;99.90;;;;;;9991560;28;20403;-70
2023/10/22 06:18:32;;;;;;;2.25;0.88;;;13.50;99.90;;;;;;9985744;28;20474;-70
2023/10/22 06:23:22;;;;;;;2.88;0.65;;;13.60;99.90;;;;;;9959226;28;20038;-70
2023/10/22 06:28:13;;;;;;;2.10;1.55;;;13.60;99.90;;;;;;9972584;28;20043;-70
2023/10/22 06:33:04;;;;;;;1.17;0.57;;;13.70;99.90;;;;;;9994628;28;20483;-70
2023/10/22 06:37:56;;;;;;;0.95;0.60;;;13.70;99.90;;;;;;9990797;28;20037;-71
2023/10/22 06:42:48;;;;;;;1.80;0.80;;;13.80;99.90;;;;;;9990626;28;20036;-70
2023/10/22 06:47:39;;;;;;;2.20;0.60;;;13.80;99.90;;;;;;9981732;28;20317;-71
2023/10/22 06:52:29;;;;;;;2.65;0.75;;;13.70;99.90;;;;;;9981591;28;20129;-71
2023/10/22 06:57:20;;;;;;;1.88;1.23;;;13.70;99.90;;;;;;10008282;28;20552;-71
2023/10/22 07:02:11;;;;;;;0.77;0.50;;;13.80;99.90;;;;;;10003820;28;20077;-71
2023/10/22 07:07:02;;;;;;;3.00;0.95;;;13.80;99.90;;;;;;9990382;28;20046;-71
2023/10/22 07:11:53;;;;;;;1.00;0.73;;;13.80;99.90;;;;;;9994202;28;20029;-70
2023/10/22 07:16:44;;;;;;;1.65;0.85;;;13.90;99.90;;;;;;9983225;28;20129;-70
2023/10/22 07:21:35;;;;;;;1.45;0.77;;;13.90;99.90;;;;;;9982675;28;20023;-69
2023/10/22 07:26:26;;;;;;;1.75;0.52;;;14.00;99.90;;;;;;9978985;28;20450;-70
2023/10/22 07:31:17;;;;;;;2.55;0.90;;;14.00;99.90;;;;;;9993335;28;20030;-71
2023/10/22 07:36:08;;;;;;;1.25;0.60;;;13.90;99.90;;;;;;9988340;28;20047;-73
2023/10/22 07:40:59;;;;;;;1.13;0.70;;;14.00;99.90;;;;;;9988465;28;20026;-69
2023/10/22 07:45:50;;;;;;;2.00;0.73;;;14.00;99.90;;;;;;9955476;28;20502;-71
2023/10/22 07:50:40;;;;;;;3.17;1.00;;;14.00;99.90;;;;;;10003187;28;20165;-70
2023/10/22 07:55:33;;;;;;;1.90;0.65;;;14.00;99.90;;;;;;9991673;28;20030;-70
2023/10/22 08:00:24;;;;;;;2.22;0.90;;;14.00;99.90;;;;;;10002458;28;20034;-70
2023/10/22 08:05:15;;;;;;;4.53;1.65;;;14.00;99.90;;;;;;10000565;28;20449;-70
2023/10/22 08:10:06;;;;;;;1.38;0.70;;;14.00;99.90;;;;;;9989225;28;20211;-70
2023/10/22 08:14:56;;;;;;;0.95;0.60;;;14.10;99.90;;;;;;9985456;28;20227;-70
2023/10/22 08:19:47;;;;;;;0.98;0.50;;;14.20;99.90;;;;;;9979931;28;20317;-70
2023/10/22 08:24:38;;;;;;;1.50;0.50;;;14.20;99.90;;;;;;9977087;28;20030;-68
2023/10/22 08:29:28;;;;;;;1.17;0.52;;;14.20;99.90;;;;;;9980909;28;20026;-67
2023/10/22 08:34:20;;;;;;;1.70;0.77;;;14.30;99.90;;;;;;9983628;28;20042;-68
2023/10/22 08:39:10;;;;;;;1.90;0.70;;;14.40;99.90;;;;;;9979644;28;20076;-69
2023/10/22 08:44:03;;;;;;;5.45;0.60;;;14.40;99.90;;;;;;9980590;28;20041;-71
2023/10/22 08:48:54;;;;;;;2.63;0.80;;;14.50;99.90;;;;;;9975819;28;20240;-72
2023/10/22 08:53:45;;;;;;;2.65;0.50;;;14.60;99.90;;;;;;10008930;28;20443;-70
2023/10/22 08:58:35;;;;;;;2.08;0.65;;;14.60;99.90;;;;;;9987351;28;20123;-72
2023/10/22 09:03:30;;;;;;;3.53;0.75;;;14.70;99.90;;;;;;10006241;28;20026;-71
2023/10/22 09:08:20;;;;;;;1.40;0.70;;;14.80;99.90;;;;;;9993781;28;20480;-71
2023/10/22 09:13:22;;;;;;;1.45;0.55;;;14.80;99.90;;;;;;9988580;28;20034;-70
2023/10/22 09:18:14;;;;;;;3.67;0.88;;;14.80;99.90;;;;;;9957980;28;20074;-70
2023/10/22 09:23:22;;;;;;;1.13;0.70;;;15.00;99.90;;;;;;9983614;28;20041;-72
2023/10/22 09:28:20;;;;;;;1.75;0.68;;;15.00;99.90;;;;;;9987280;28;20061;-72
2023/10/22 09:33:10;;;;;;;3.05;0.70;;;15.00;99.90;;;;;;9985413;28;20510;-71
2023/10/22 09:38:01;;;;;;;0.88;0.45;;;15.10;99.90;;;;;;9969024;28;20133;-69
2023/10/22 09:42:53;;;;;;;1.40;0.70;;;15.10;99.90;;;;;;9969299;28;20030;-70
2023/10/22 09:47:46;;;;;;;2.70;0.90;;;15.20;99.90;;;;;;9977580;28;20087;-71
2023/10/22 09:52:42;;;;;;;2.92;1.20;;;15.30;99.90;;;;;;9986364;28;20132;-70
2023/10/22 09:57:35;;;;;;;2.17;1.55;;;15.40;99.90;;;;;;10002805;28;20428;-70
2023/10/22 10:02:26;;;;;;;4.03;1.25;;;15.50;99.90;;;;;;10008094;28;20072;-71
2023/10/22 10:07:17;;;;;;;3.00;1.33;;;15.60;99.90;;;;;;9977613;28;20026;-70
2023/10/22 10:12:08;;;;;;;2.05;0.85;;;15.60;99.90;;;;;;9973347;28;20073;-70
2023/10/22 10:17:02;;;;;;;3.60;0.73;;;15.70;99.90;;;;;;9984756;28;20070;-70
2023/10/22 10:21:53;;;;;;;2.72;0.50;;;15.70;99.90;;;;;;9981249;28;20065;-71
2023/10/22 10:26:44;;;;;;;3.38;0.88;;;15.80;99.90;;;;;;9995851;28;20419;-70
2023/10/22 10:31:35;;;;;;;2.90;1.40;;;15.80;99.90;;;;;;9965721;28;20053;-70
2023/10/22 10:36:27;;;;;;;2.05;0.82;;;15.80;99.90;;;;;;9978918;28;20381;-70
2023/10/22 10:41:51;;;;;;;2.63;0.80;;;16.00;99.90;;;;;;9990872;28;20499;-71
2023/10/22 10:46:42;;;;;;;1.27;0.85;;;16.10;99.90;;;;;;9970624;28;20048;-71
2023/10/22 10:51:32;;;;;;;5.43;1.77;;;16.10;99.90;;;;;;9942551;28;20137;-69
2023/10/22 10:56:45;;;;;;;7.68;1.15;;;16.00;99.90;;;;;;9973740;28;20042;-70
2023/10/22 11:01:35;;;;;;;2.53;0.63;;;16.10;99.90;;;;;;9958907;28;20030;-70
2023/10/22 11:06:26;;;;;;;1.65;0.68;;;16.20;99.90;;;;;;9930712;28;20037;-70
2023/10/22 11:11:17;;;;;;;5.65;0.60;;;16.30;99.90;;;;;;9951814;28;20038;-71
2023/10/22 11:16:08;;;;;;;1.80;0.70;;;16.40;99.90;;;;;;9932226;28;20050;-70
2023/10/22 11:20:59;;;;;;;2.53;0.93;;;16.40;99.90;;;;;;9941526;28;20052;-70
2023/10/22 11:25:50;;;;;;;3.58;1.08;;;16.40;99.90;;;;;;9928117;28;20259;-71
2023/10/22 11:30:41;;;;;;;3.90;1.52;;;16.50;99.90;;;;;;9929558;28;20034;-70
2023/10/22 11:35:32;;;;;;;2.63;0.88;;;16.40;99.90;;;;;;9929627;28;20048;-70
2023/10/22 11:40:28;;;;;;;4.68;2.05;;;16.40;99.90;;;;;;9930279;28;20031;-71
2023/10/22 11:45:19;;;;;;;3.03;0.85;;;16.40;99.90;;;;;;9923741;28;21445;-70
2023/10/22 11:50:13;;;;;;;0.90;0.65;;;16.50;99.90;;;;;;9962273;28;20096;-70
2023/10/22 11:55:05;;;;;;;3.60;0.90;;;16.60;99.90;;;;;;10008284;28;20014;-71
2023/10/22 11:59:55;;;;;;;2.72;1.30;;;16.70;99.90;;;;;;9977994;28;20062;-70
2023/10/22 12:04:47;;;;;;;2.53;0.73;;;16.80;99.90;;;;;;9981170;28;20100;-70
2023/10/22 12:09:37;;;;;;;1.63;0.70;;;16.90;99.90;;;;;;9971162;28;20018;-70
2023/10/22 12:14:28;;;;;;;2.50;0.63;;;17.10;99.90;;;;;;9981764;28;20042;-70
2023/10/22 12:19:19;;;;;;;4.68;1.00;;;17.10;99.90;;;;;;9984250;28;20373;-71
2023/10/22 12:24:10;;;;;;;1.60;0.82;;;17.20;99.90;;;;;;10000413;28;20026;-70
2023/10/22 12:29:00;;;;;;;2.80;1.00;;;17.20;99.90;;;;;;9986555;28;20026;-70
2023/10/22 12:33:51;;;;;;;7.22;1.77;;;17.30;99.90;;;;;;9987161;28;20484;-71
2023/10/22 12:38:42;;;;;;;2.08;0.73;;;17.40;99.90;;;;;;10004572;28;20096;-70
2023/10/22 12:43:32;;;;;;;2.20;0.70;;;17.40;99.90;;;;;;9995192;28;20034;-70
2023/10/22 12:48:23;;;;;;;2.47;0.57;;;17.40;99.90;;;;;;9993675;28;20042;-70
2023/10/22 12:53:14;;;;;;;3.17;1.30;;;17.50;99.90;;;;;;9991792;28;20035;-69
2023/10/22 12:58:04;;;;;;;2.97;0.82;;;17.40;99.90;;;;;;9978599;28;20503;-69
2023/10/22 13:02:55;;;;;;;1.30;0.52;;;17.40;99.90;;;;;;9973619;28;20527;-70
2023/10/22 13:07:45;;;;;;;6.70;1.88;;;17.30;99.90;;;;;;9985813;28;20054;-70
2023/10/22 13:12:38;;;;;;;1.88;0.65;;;17.30;99.90;;;;;;9984858;28;20042;-70
2023/10/22 13:17:31;;;;;;;3.72;0.88;;;17.30;99.90;;;;;;9990910;28;20034;-69
2023/10/22 13:22:21;;;;;;;3.33;0.70;;;17.40;99.90;;;;;;9983021;28;20030;-70
2023/10/22 13:27:13;;;;;;;2.13;0.70;;;17.50;99.90;;;;;;9980935;28;20034;-70
2023/10/22 13:32:03;;;;;;;1.70;0.75;;;17.80;99.90;;;;;;9993387;28;20471;-70
2023/10/22 13:36:54;;;;;;;2.28;0.75;;;17.80;99.90;;;;;;9969924;28;20042;-70
2023/10/22 13:41:45;;;;;;;1.80;0.38;;;17.80;99.90;;;;;;9990495;28;20041;-70
2023/10/22 13:46:36;;;;;;;2.17;0.80;;;17.70;99.90;;;;;;9990692;28;20041;-70
2023/10/22 13:51:27;;;;;;;2.53;0.70;;;17.60;99.90;;;;;;9979625;28;20056;-69
2023/10/22 13:56:17;;;;;;;1.60;0.65;;;17.70;99.90;;;;;;10002302;28;20190;-70
2023/10/22 14:01:11;;;;;;;1.10;0.80;;;17.70;99.90;;;;;;10001599;28;20034;-69
2023/10/22 14:06:02;;;;;;;4.93;0.60;;;17.70;99.90;;;;;;9982405;28;20030;-70
2023/10/22 14:10:53;;;;;;;2.22;0.57;;;17.70;99.90;;;;;;9985268;28;20575;-70
2023/10/22 14:15:44;;;;;;;2.60;1.23;;;17.60;99.90;;;;;;9997836;28;20285;-70
2023/10/22 14:20:35;;;;;;;2.30;1.23;;;17.60;99.90;;;;;;9994014;28;20034;-70
2023/10/22 14:25:26;;;;;;;2.13;1.25;;;17.70;99.90;;;;;;10003740;28;20033;-71
2023/10/22 14:30:17;;;;;;;2.15;0.93;;;17.70;99.90;;;;;;9999150;28;20085;-71
2023/10/22 14:35:08;;;;;;;4.20;0.80;;;17.90;99.90;;;;;;9980877;28;20039;-71
2023/10/22 14:39:59;;;;;;;0.95;0.35;;;17.90;99.90;;;;;;9984937;28;20026;-70
2023/10/22 14:44:50;;;;;;;1.73;0.60;;;17.90;99.90;;;;;;9997365;28;20049;-70
2023/10/22 14:49:41;;;;;;;1.27;0.73;;;17.90;99.90;;;;;;10011206;28;20049;-70
2023/10/22 14:54:31;;;;;;;1.95;0.57;;;17.90;99.90;;;;;;9988234;28;20023;-70
2023/10/22 14:59:22;;;;;;;4.00;0.88;;;17.90;99.90;;;;;;9983356;28;20124;-70
2023/10/22 15:04:13;;;;;;;1.27;0.40;;;17.90;99.90;;;;;;9995590;28;20081;-69
2023/10/22 15:09:06;;;;;;;1.88;0.60;;;17.90;99.90;;;;;;9988109;28;20100;-71
2023/10/22 15:13:57;;;;;;;2.60;0.80;;;17.90;99.90;;;;;;9984234;28;20038;-71
2023/10/22 15:18:48;;;;;;;2.67;1.20;;;17.90;99.90;;;;;;9999958;28;20150;-71
2023/10/22 15:23:38;;;;;;;2.47;1.60;;;17.90;99.90;;;;;;10000261;28;20033;-71
2023/10/22 15:28:29;;;;;;;1.50;0.70;;;17.90;99.90;;;;;;10003556;28;20448;-70
2023/10/22 15:33:20;;;;;;;1.10;0.70;;;17.90;99.90;;;;;;9994607;28;20229;-71
2023/10/22 15:38:13;;;;;;;1.05;0.50;;;18.00;99.90;;;;;;9968112;28;20034;-70
2023/10/22 15:43:03;;;;;;;3.63;1.30;;;17.90;99.90;;;;;;9969565;28;20054;-71
2023/10/22 15:47:56;;;;;;;3.03;0.98;;;17.90;99.90;;;;;;9980985;28;20029;-71
2023/10/22 15:52:48;;;;;;;2.63;1.20;;;17.80;99.90;;;;;;10001732;28;20046;-71
2023/10/22 15:57:39;;;;;;;1.48;0.70;;;17.80;99.90;;;;;;10010030;28;20034;-70
2023/10/22 16:02:30;;;;;;;1.95;0.73;;;17.70;99.90;;;;;;10004826;28;20644;-70
2023/10/22 16:07:23;;;;;;;1.85;0.77;;;17.70;99.90;;;;;;9992347;28;20570;-70
2023/10/22 16:12:16;;;;;;;2.58;0.60;;;17.70;99.90;;;;;;10001487;28;20035;-70
2023/10/22 16:17:08;;;;;;;3.13;0.88;;;17.70;99.90;;;;;;9993753;28;20389;-70
2023/10/22 16:22:00;;;;;;;2.72;0.95;;;17.70;99.90;;;;;;10004006;28;20042;-70
2023/10/22 16:26:52;;;;;;;3.22;1.25;;;17.60;99.90;;;;;;10013314;28;20554;-70
2023/10/22 16:31:42;;;;;;;4.75;1.50;;;17.60;99.90;;;;;;10008869;28;20038;-70
2023/10/22 16:36:33;;;;;;;3.67;1.25;;;17.60;99.90;;;;;;9989940;28;20088;-70
2023/10/22 16:41:23;;;;;;;1.15;0.63;;;17.60;99.90;;;;;;9994959;28;20038;-69
2023/10/22 16:46:16;;;;;;;1.88;1.10;;;17.50;99.90;;;;;;9989219;28;20034;-69
2023/10/22 16:51:06;;;;;;;2.15;0.88;;;17.50;99.90;;;;;;10012151;28;20543;-69
2023/10/22 16:56:05;;;;;;;3.45;1.85;;;17.50;99.90;;;;;;10017153;28;20026;-70
2023/10/22 17:01:01;;;;;;;5.65;1.58;;;17.50;99.90;;;;;;9993514;28;20034;-69
2023/10/22 17:05:54;;;;;;;3.88;1.65;;;17.40;99.90;;;;;;9979557;28;20161;-69
2023/10/22 17:10:44;;;;;;;6.32;2.22;;;17.40;99.90;;;;;;9995671;28;20443;-70
2023/10/22 17:15:37;;;;;;;3.28;2.38;;;17.40;99.90;;;;;;9995779;28;20034;-69
2023/10/22 17:20:28;;;;;;;3.50;1.58;;;17.40;99.90;;;;;;9996761;28;20030;-70
2023/10/22 17:25:19;;;;;;;2.55;1.40;;;17.40;99.90;;;;;;9972723;28;20104;-70
2023/10/22 17:30:10;;;;;;;1.80;1.38;;;17.30;99.90;;;;;;9991618;28;20455;-71
2023/10/22 17:35:01;;;;;;;3.28;1.40;;;17.30;99.90;;;;;;9981878;28;20027;-71
2023/10/22 17:39:52;;;;;;;5.68;1.35;;;17.30;99.90;;;;;;9972359;28;20038;-73
2023/10/22 17:44:43;;;;;;;3.42;1.70;;;17.30;99.90;;;;;;9986830;28;20030;-72
2023/10/22 17:49:34;;;;;;;2.67;1.50;;;17.30;99.90;;;;;;9983969;28;20444;-72
2023/10/22 17:54:24;;;;;;;3.75;1.67;;;17.20;99.90;;;;;;9998788;28;20034;-72
2023/10/22 17:59:15;;;;;;;3.05;2.38;;;17.20;99.90;;;;;;10011939;28;20041;-72
2023/10/22 18:04:06;;;;;;;3.83;1.88;;;17.20;99.90;;;;;;10004505;28;20027;-72
2023/10/22 18:08:58;;;;;;;4.65;2.22;;;17.10;99.90;;;;;;9988273;28;20038;-72
2023/10/22 18:13:48;;;;;;;7.38;2.47;;;17.10;99.90;;;;;;9995444;28;20031;-72
2023/10/22 18:18:39;;;;;;;3.72;1.90;;;17.10;99.90;;;;;;9988327;28;20035;-72
2023/10/22 18:23:30;;;;;;;6.53;2.55;;;17.10;99.90;;;;;;10008006;28;20039;-70
2023/10/22 18:28:20;;;;;;;5.55;2.92;;;17.00;99.90;;;;;;9979414;28;20504;-71
2023/10/22 18:33:11;;;;;;;8.02;3.40;;;17.00;99.90;;;;;;9995457;28;20034;-71
2023/10/22 18:38:02;;;;;;;7.90;3.20;;;17.00;99.90;;;;;;9989829;28;20036;-71
2023/10/22 18:42:54;;;;;;;6.00;2.95;;;17.00;99.90;;;;;;9992710;28;20034;-72
2023/10/22 18:47:45;;;;;;;6.05;3.45;;;16.90;99.90;;;;;;9984488;28;20124;-71
2023/10/22 18:52:36;;;;;;;5.65;3.63;;;16.90;99.90;;;;;;9969170;28;20471;-70
2023/10/22 18:57:30;;;;;;;7.45;4.50;;;16.90;99.90;;;;;;9972629;28;20371;-72
2023/10/22 19:02:24;;;;;;;13.25;4.40;;;16.80;99.90;;;;;;9989816;28;20054;-73
2023/10/22 19:07:15;;;;;;;10.88;4.63;;;16.80;99.90;;;;;;9975772;28;20039;-72
2023/10/22 19:12:06;;;;;;;9.10;4.72;;;16.80;99.90;;;;;;9991297;28;20022;-72
2023/10/22 19:16:56;;;;;;;9.75;6.00;;;16.80;99.90;;;;;;9985368;28;20466;-70
2023/10/22 19:21:48;;;;;;;10.60;4.97;;;16.70;99.90;;;;;;10002498;28;20461;-70
2023/10/22 19:26:38;;;;;;;10.57;6.22;;;16.70;99.90;;;;;;10008789;28;20025;-70
2023/10/22 19:31:29;;;;;;;11.68;6.22;;;16.60;99.90;;;;;;10006031;28;20037;-71
2023/10/22 19:36:21;;;;;;;11.43;4.85;;;16.60;99.90;;;;;;9961721;28;20443;-71
2023/10/22 19:41:20;;;;;;;9.60;4.85;;;16.60;99.90;;;;;;9988177;28;20120;-71
2023/10/22 19:46:10;;;;;;;11.10;5.18;;;16.60;99.90;;;;;;9981322;28;20030;-71
2023/10/22 19:51:03;;;;;;;7.93;3.65;;;16.50;99.90;;;;;;9999943;28;20543;-71
2023/10/22 19:55:53;;;;;;;8.32;3.85;;;16.40;99.90;;;;;;9999148;28;20408;-71
2023/10/22 20:00:44;;;;;;;9.55;4.03;;;16.40;99.90;;;;;;9994019;28;20093;-71
2023/10/22 20:05:37;;;;;;;6.00;3.03;;;16.40;99.90;;;;;;9998004;28;20081;-74
2023/10/22 20:10:30;;;;;;;8.43;2.63;;;16.40;99.90;;;;;;9970934;28;20377;-73
2023/10/22 20:15:21;;;;;;;7.15;2.88;;;16.40;99.90;;;;;;9987304;28;20504;-71
2023/10/22 20:20:12;;;;;;;8.43;3.05;;;16.30;99.90;;;;;;9970630;28;20049;-69
2023/10/22 20:25:02;;;;;;;6.43;2.78;;;16.30;99.90;;;;;;9997717;28;20045;-74
2023/10/22 20:29:53;;;;;;;7.40;2.85;;;16.30;99.90;;;;;;9993278;28;20061;-73
2023/10/22 20:34:44;;;;;;;5.15;2.80;;;16.20;99.90;;;;;;9974050;28;20032;-73
2023/10/22 20:39:35;;;;;;;7.35;3.17;;;16.20;99.90;;;;;;9987291;28;20038;-73
2023/10/22 20:44:25;;;;;;;7.43;3.22;;;16.10;99.90;;;;;;9965172;28;20125;-72
2023/10/22 20:49:16;;;;;;;8.48;3.55;;;16.10;99.90;;;;;;9962946;28;20301;-73
2023/10/22 20:54:07;;;;;;;7.30;4.10;;;16.10;99.90;;;;;;9983389;28;20451;-75
2023/10/22 20:58:57;;;;;;;8.15;4.07;;;16.10;99.90;;;;;;10012587;28;20037;-74
2023/10/22 21:03:48;;;;;;;9.68;4.78;;;16.10;99.90;;;;;;10008450;28;20067;-75
2023/10/22 21:08:39;;;;;;;13.18;5.22;;;16.10;99.90;;;;;;9997317;28;20026;-75
2023/10/22 21:13:30;;;;;;;9.55;4.95;;;16.00;99.90;;;;;;9992185;28;20495;-74
2023/10/22 21:18:21;;;;;;;9.32;4.15;;;16.00;99.90;;;;;;9994553;28;20049;-74
2023/10/22 21:23:11;;;;;;;9.00;4.20;;;15.90;99.90;;;;;;9989314;28;20430;-73
2023/10/22 21:28:02;;;;;;;8.02;3.97;;;15.90;99.90;;;;;;10005719;28;20064;-72
2023/10/22 21:32:53;;;;;;;7.97;3.80;;;15.80;99.90;;;;;;9981390;28;20096;-73
2023/10/22 21:37:43;;;;;;;5.30;2.72;;;15.90;99.90;;;;;;9986505;28;20037;-72
2023/10/22 21:42:34;;;;;;;7.53;3.35;;;15.80;99.90;;;;;;9983755;28;20126;-73
2023/10/22 21:47:26;;;;;;;6.22;3.42;;;15.70;99.90;;;;;;9973263;28;20042;-73
2023/10/22 21:52:17;;;;;;;4.50;3.10;;;15.70;99.90;;;;;;9976492;28;20843;-74
2023/10/22 21:57:08;;;;;;;6.93;2.47;;;15.50;99.90;;;;;;9997604;28;20129;-73
2023/10/22 22:02:00;;;;;;;7.35;2.03;;;15.50;99.90;;;;;;10001240;28;20088;-73
2023/10/22 22:06:51;;;;;;;4.10;2.08;;;15.50;99.90;;;;;;9976305;28;20033;-73
2023/10/22 22:11:41;;;;;;;4.97;1.77;;;15.40;99.90;;;;;;9993730;28;20080;-73
2023/10/22 22:16:32;;;;;;;4.15;2.08;;;15.40;99.90;;;;;;9984491;28;20197;-72
2023/10/22 22:21:23;;;;;;;6.05;2.30;;;15.30;99.90;;;;;;9982432;28;20026;-74
2023/10/22 22:26:14;;;;;;;4.15;1.80;;;15.30;99.90;;;;;;10008604;28;20030;-73
2023/10/22 22:31:05;;;;;;;5.72;2.72;;;15.20;99.90;;;;;;9994400;28;20032;-75
2023/10/22 22:35:55;;;;;;;5.55;2.00;;;15.20;99.90;;;;;;9990343;28;20025;-71
2023/10/22 22:40:46;;;;;;;4.90;1.83;;;15.10;99.90;;;;;;9970504;28;20026;-77
2023/10/22 22:45:37;;;;;;;3.72;1.73;;;15.10;99.90;;;;;;9987570;28;20030;-71
2023/10/22 22:50:27;;;;;;;3.33;2.13;;;15.10;99.90;;;;;;9977229;28;20137;-71
2023/10/22 22:55:18;;;;;;;6.22;2.50;;;15.10;99.90;;;;;;9982952;28;20039;-75
2023/10/22 23:00:09;;;;;;;7.75;2.55;;;15.10;99.90;;;;;;9981369;28;20462;-74
2023/10/22 23:05:00;;;;;;;5.13;1.95;;;15.10;99.90;;;;;;10001801;28;20022;-72
2023/10/22 23:09:51;;;;;;;3.83;1.88;;;15.00;99.90;;;;;;9969638;28;20061;-74
2023/10/22 23:14:42;;;;;;;4.00;2.38;;;15.00;99.90;;;;;;9984970;28;20029;-75
2023/10/22 23:19:33;;;;;;;5.97;2.90;;;14.90;99.90;;;;;;9965989;28;20049;-77
2023/10/22 23:24:23;;;;;;;7.70;3.22;;;15.00;99.90;;;;;;9996851;28;20032;-74
2023/10/22 23:29:14;;;;;;;6.32;3.63;;;14.80;99.90;;;;;;9995312;28;20464;-71
2023/10/22 23:34:05;;;;;;;6.30;3.50;;;14.80;99.90;;;;;;9967469;28;20309;-70
2023/10/22 23:38:56;;;;;;;7.68;3.33;;;14.70;99.90;;;;;;9987469;28;20022;-68
2023/10/22 23:43:47;;;;;;;7.57;3.83;;;14.70;99.90;;;;;;9984919;28;20109;-71
2023/10/22 23:48:37;;;;;;;7.72;3.45;;;14.60;99.90;;;;;;9982186;28;20125;-74
2023/10/22 23:53:28;;;;;;;6.13;3.33;;;14.50;99.90;;;;;;9997727;28;20326;-70
2023/10/22 23:58:20;;;;;;;5.63;4.03;;;14.50;99.90;;;;;;9986007;28;20046;-75
